Terminal Aerodrome Forecast
Issued by NWS

Home | Current Version | Previous Version | Graphics & Text | Print | Product List | Glossary On
Versions: 1 2 3 4 5 6 7 8 9 10 11 12 13 14 15 16 17 18 19 20 21 22 23 24 25
154
FTUS43 KOAX 250900 AAA
TAFCDR
TAF AMD
KCDR 250900Z 2509/2606 VRB05KT P6SM OVC070
     FM251200 36004KT 4SM BR OVC009
     FM251600 03006KT P6SM SCT015 BKN025
     FM252100 05006KT P6SM VCSH SCT025 BKN040=

USA.gov is the U.S. government's official web portal to all federal, state and local government web resources and services.